sensor_id;sensor_type;location;lat;lon;timestamp;pressure;altitude;pressure_sealevel;temperature;humidity
73429;BME280;61643;49.564;17.412;2023-05-12T00:00:17;98193.13;;;11.04;67.56
73429;BME280;61643;49.564;17.412;2023-05-12T00:02:43;98190.09;;;10.91;70.69
73429;BME280;61643;49.564;17.412;2023-05-12T00:05:09;98195.66;;;10.79;70.04
73429;BME280;61643;49.564;17.412;2023-05-12T00:07:35;98194.91;;;10.52;72.04
73429;BME280;61643;49.564;17.412;2023-05-12T00:10:01;98187.44;;;10.27;73.74
73429;BME280;61643;49.564;17.412;2023-05-12T00:12:27;98193.06;;;10.25;73.47
73429;BME280;61643;49.564;17.412;2023-05-12T00:14:54;98190.75;;;10.12;73.86
73429;BME280;61643;49.564;17.412;2023-05-12T00:17:20;98189.75;;;9.70;76.54
73429;BME280;61643;49.564;17.412;2023-05-12T00:19:46;98182.16;;;9.88;75.51
73429;BME280;61643;49.564;17.412;2023-05-12T00:22:13;98191.41;;;9.98;75.58
73429;BME280;61643;49.564;17.412;2023-05-12T00:24:40;98193.81;;;9.94;76.13
73429;BME280;61643;49.564;17.412;2023-05-12T00:27:06;98202.63;;;9.89;76.43
73429;BME280;61643;49.564;17.412;2023-05-12T00:29:32;98194.56;;;9.89;75.35
73429;BME280;61643;49.564;17.412;2023-05-12T00:31:59;98207.88;;;9.79;75.91
73429;BME280;61643;49.564;17.412;2023-05-12T00:34:26;98202.25;;;9.81;76.64
73429;BME280;61643;49.564;17.412;2023-05-12T00:36:52;98200.13;;;9.83;76.57
73429;BME280;61643;49.564;17.412;2023-05-12T00:39:19;98210.09;;;9.87;76.48
73429;BME280;61643;49.564;17.412;2023-05-12T00:41:45;98204.63;;;9.77;77.38
73429;BME280;61643;49.564;17.412;2023-05-12T00:44:12;98208.31;;;9.71;77.89
73429;BME280;61643;49.564;17.412;2023-05-12T00:46:38;98216.47;;;9.55;79.01
73429;BME280;61643;49.564;17.412;2023-05-12T00:49:04;98213.19;;;9.53;78.18
73429;BME280;61643;49.564;17.412;2023-05-12T00:51:30;98211.81;;;9.72;77.22
73429;BME280;61643;49.564;17.412;2023-05-12T00:53:57;98209.44;;;9.75;77.13
73429;BME280;61643;49.564;17.412;2023-05-12T00:56:24;98209.66;;;9.69;76.70
73429;BME280;61643;49.564;17.412;2023-05-12T00:58:50;98212.75;;;9.61;76.05
73429;BME280;61643;49.564;17.412;2023-05-12T01:01:16;98214.72;;;9.44;75.50
73429;BME280;61643;49.564;17.412;2023-05-12T01:03:43;98220.41;;;9.30;76.33
73429;BME280;61643;49.564;17.412;2023-05-12T01:06:22;98214.94;;;9.42;77.08
73429;BME280;61643;49.564;17.412;2023-05-12T01:08:51;98215.25;;;9.46;78.45
73429;BME280;61643;49.564;17.412;2023-05-12T01:11:18;98204.59;;;9.51;78.07
73429;BME280;61643;49.564;17.412;2023-05-12T01:13:44;98207.13;;;9.62;78.29
73429;BME280;61643;49.564;17.412;2023-05-12T01:16:12;98206.97;;;9.69;77.86
73429;BME280;61643;49.564;17.412;2023-05-12T01:18:41;98217.19;;;9.72;77.65
73429;BME280;61643;49.564;17.412;2023-05-12T01:21:09;98214.13;;;9.63;78.21
73429;BME280;61643;49.564;17.412;2023-05-12T01:23:38;98213.16;;;9.48;78.47
73429;BME280;61643;49.564;17.412;2023-05-12T01:26:08;98218.50;;;9.26;78.13
73429;BME280;61643;49.564;17.412;2023-05-12T01:28:35;98214.59;;;9.17;79.21
73429;BME280;61643;49.564;17.412;2023-05-12T01:31:02;98222.97;;;9.20;79.48
73429;BME280;61643;49.564;17.412;2023-05-12T01:33:30;98226.41;;;9.16;78.76
73429;BME280;61643;49.564;17.412;2023-05-12T01:35:56;98214.78;;;9.10;79.02
73429;BME280;61643;49.564;17.412;2023-05-12T01:38:22;98219.53;;;9.03;79.69
73429;BME280;61643;49.564;17.412;2023-05-12T01:40:48;98214.66;;;8.83;79.86
73429;BME280;61643;49.564;17.412;2023-05-12T01:43:14;98226.44;;;8.66;79.59
73429;BME280;61643;49.564;17.412;2023-05-12T01:45:40;98219.31;;;8.71;79.64
73429;BME280;61643;49.564;17.412;2023-05-12T01:48:06;98215.97;;;8.64;79.81
73429;BME280;61643;49.564;17.412;2023-05-12T01:50:32;98224.34;;;8.68;79.54
73429;BME280;61643;49.564;17.412;2023-05-12T01:52:58;98223.13;;;8.59;79.60
73429;BME280;61643;49.564;17.412;2023-05-12T01:55:24;98226.53;;;8.54;79.61
73429;BME280;61643;49.564;17.412;2023-05-12T01:57:50;98220.28;;;8.49;79.60
73429;BME280;61643;49.564;17.412;2023-05-12T02:00:16;98223.34;;;8.40;80.08
73429;BME280;61643;49.564;17.412;2023-05-12T02:02:42;98224.88;;;8.36;80.44
73429;BME280;61643;49.564;17.412;2023-05-12T02:05:08;98214.41;;;8.35;80.76
73429;BME280;61643;49.564;17.412;2023-05-12T02:07:34;98221.63;;;8.34;81.02
73429;BME280;61643;49.564;17.412;2023-05-12T02:10:00;98214.09;;;8.31;80.70
73429;BME280;61643;49.564;17.412;2023-05-12T02:12:26;98222.22;;;8.25;80.92
73429;BME280;61643;49.564;17.412;2023-05-12T02:14:52;98211.50;;;8.25;81.30
73429;BME280;61643;49.564;17.412;2023-05-12T02:17:18;98210.38;;;8.21;82.02
73429;BME280;61643;49.564;17.412;2023-05-12T02:19:44;98217.50;;;8.15;81.66
73429;BME280;61643;49.564;17.412;2023-05-12T02:22:10;98214.25;;;8.13;82.35
73429;BME280;61643;49.564;17.412;2023-05-12T02:24:36;98213.34;;;8.08;82.35
73429;BME280;61643;49.564;17.412;2023-05-12T02:27:02;98213.00;;;8.04;82.98
73429;BME280;61643;49.564;17.412;2023-05-12T02:29:28;98211.03;;;8.00;82.25
73429;BME280;61643;49.564;17.412;2023-05-12T02:31:54;98208.38;;;8.00;83.01
73429;BME280;61643;49.564;17.412;2023-05-12T02:34:20;98213.28;;;8.03;82.01
73429;BME280;61643;49.564;17.412;2023-05-12T02:36:46;98215.56;;;7.82;82.80
73429;BME280;61643;49.564;17.412;2023-05-12T02:39:12;98222.09;;;7.75;83.14
73429;BME280;61643;49.564;17.412;2023-05-12T02:41:39;98216.81;;;7.91;83.01
73429;BME280;61643;49.564;17.412;2023-05-12T02:44:05;98220.06;;;7.93;83.05
73429;BME280;61643;49.564;17.412;2023-05-12T02:46:31;98222.50;;;7.95;82.97
73429;BME280;61643;49.564;17.412;2023-05-12T02:48:57;98218.56;;;7.86;82.90
73429;BME280;61643;49.564;17.412;2023-05-12T02:51:23;98220.16;;;7.70;83.55
73429;BME280;61643;49.564;17.412;2023-05-12T02:53:49;98219.56;;;7.68;84.13
73429;BME280;61643;49.564;17.412;2023-05-12T02:56:16;98217.00;;;7.73;83.68
73429;BME280;61643;49.564;17.412;2023-05-12T02:58:42;98219.34;;;7.70;83.41
73429;BME280;61643;49.564;17.412;2023-05-12T03:01:08;98211.41;;;7.63;83.31
73429;BME280;61643;49.564;17.412;2023-05-12T03:03:34;98213.56;;;7.50;83.78
73429;BME280;61643;49.564;17.412;2023-05-12T03:06:00;98214.97;;;7.52;83.54
73429;BME280;61643;49.564;17.412;2023-05-12T03:08:26;98211.94;;;7.49;83.94
73429;BME280;61643;49.564;17.412;2023-05-12T03:10:52;98217.66;;;7.52;84.19
73429;BME280;61643;49.564;17.412;2023-05-12T03:13:18;98220.66;;;7.56;83.95
73429;BME280;61643;49.564;17.412;2023-05-12T03:15:44;98215.19;;;7.51;83.65
73429;BME280;61643;49.564;17.412;2023-05-12T03:18:10;98220.09;;;7.42;84.35
73429;BME280;61643;49.564;17.412;2023-05-12T03:20:36;98223.59;;;7.31;84.90
73429;BME280;61643;49.564;17.412;2023-05-12T03:23:02;98222.56;;;7.32;85.43
73429;BME280;61643;49.564;17.412;2023-05-12T03:25:28;98223.16;;;7.22;85.53
73429;BME280;61643;49.564;17.412;2023-05-12T03:27:54;98222.69;;;7.25;86.02
73429;BME280;61643;49.564;17.412;2023-05-12T03:30:20;98223.84;;;7.29;85.10
73429;BME280;61643;49.564;17.412;2023-05-12T03:32:46;98236.50;;;7.46;85.03
73429;BME280;61643;49.564;17.412;2023-05-12T03:35:12;98232.75;;;7.58;84.43
73429;BME280;61643;49.564;17.412;2023-05-12T03:37:38;98235.97;;;7.72;83.58
73429;BME280;61643;49.564;17.412;2023-05-12T03:40:05;98232.47;;;7.71;83.30
73429;BME280;61643;49.564;17.412;2023-05-12T03:42:31;98242.38;;;7.71;84.19
73429;BME280;61643;49.564;17.412;2023-05-12T03:44:57;98244.97;;;7.66;85.45
73429;BME280;61643;49.564;17.412;2023-05-12T03:47:23;98247.38;;;7.79;84.74
73429;BME280;61643;49.564;17.412;2023-05-12T03:49:49;98242.69;;;7.86;85.13
73429;BME280;61643;49.564;17.412;2023-05-12T03:52:15;98249.34;;;7.83;84.35
73429;BME280;61643;49.564;17.412;2023-05-12T03:54:41;98243.50;;;8.15;84.32
73429;BME280;61643;49.564;17.412;2023-05-12T03:57:07;98249.84;;;8.25;84.17
73429;BME280;61643;49.564;17.412;2023-05-12T03:59:33;98254.97;;;8.10;83.94
73429;BME280;61643;49.564;17.412;2023-05-12T04:01:59;98243.91;;;8.35;83.03
73429;BME280;61643;49.564;17.412;2023-05-12T04:04:25;98257.88;;;8.54;82.91
73429;BME280;61643;49.564;17.412;2023-05-12T04:06:51;98257.34;;;8.68;80.35
73429;BME280;61643;49.564;17.412;2023-05-12T04:09:17;98259.69;;;8.65;81.19
73429;BME280;61643;49.564;17.412;2023-05-12T04:11:43;98263.78;;;8.84;80.73
73429;BME280;61643;49.564;17.412;2023-05-12T04:14:09;98259.97;;;8.97;80.12
73429;BME280;61643;49.564;17.412;2023-05-12T04:16:35;98270.63;;;9.30;78.37
73429;BME280;61643;49.564;17.412;2023-05-12T04:19:02;98266.06;;;8.92;80.61
73429;BME280;61643;49.564;17.412;2023-05-12T04:21:28;98268.34;;;9.00;80.07
73429;BME280;61643;49.564;17.412;2023-05-12T04:23:54;98271.09;;;9.05;79.36
73429;BME280;61643;49.564;17.412;2023-05-12T04:26:20;98276.19;;;9.23;79.32
73429;BME280;61643;49.564;17.412;2023-05-12T04:28:46;98268.78;;;9.30;78.39
73429;BME280;61643;49.564;17.412;2023-05-12T04:31:12;98274.81;;;9.59;78.40
73429;BME280;61643;49.564;17.412;2023-05-12T04:33:38;98279.69;;;9.84;77.21
73429;BME280;61643;49.564;17.412;2023-05-12T04:36:04;98277.47;;;10.19;75.40
73429;BME280;61643;49.564;17.412;2023-05-12T04:38:31;98278.28;;;10.47;75.66
73429;BME280;61643;49.564;17.412;2023-05-12T04:40:57;98285.16;;;10.59;77.59
73429;BME280;61643;49.564;17.412;2023-05-12T04:43:25;98288.69;;;10.65;75.12
73429;BME280;61643;49.564;17.412;2023-05-12T04:45:51;98281.50;;;10.75;74.31
73429;BME280;61643;49.564;17.412;2023-05-12T04:48:19;98288.16;;;11.00;74.77
73429;BME280;61643;49.564;17.412;2023-05-12T04:50:46;98276.44;;;11.58;73.65
73429;BME280;61643;49.564;17.412;2023-05-12T04:53:15;98285.31;;;12.00;73.83
73429;BME280;61643;49.564;17.412;2023-05-12T04:55:42;98275.16;;;12.38;72.20
73429;BME280;61643;49.564;17.412;2023-05-12T04:58:11;98274.97;;;12.69;70.77
73429;BME280;61643;49.564;17.412;2023-05-12T05:00:38;98281.16;;;12.95;68.78
73429;BME280;61643;49.564;17.412;2023-05-12T05:03:04;98283.34;;;13.18;68.15
73429;BME280;61643;49.564;17.412;2023-05-12T05:05:31;98285.53;;;13.16;67.87
73429;BME280;61643;49.564;17.412;2023-05-12T05:07:57;98290.88;;;13.06;68.81
73429;BME280;61643;49.564;17.412;2023-05-12T05:10:23;98283.88;;;13.05;68.97
73429;BME280;61643;49.564;17.412;2023-05-12T05:12:50;98290.09;;;13.01;68.79
73429;BME280;61643;49.564;17.412;2023-05-12T05:15:15;98287.94;;;12.98;71.03
73429;BME280;61643;49.564;17.412;2023-05-12T05:17:41;98291.44;;;13.03;70.32
73429;BME280;61643;49.564;17.412;2023-05-12T05:20:08;98288.47;;;13.05;69.76
73429;BME280;61643;49.564;17.412;2023-05-12T05:22:35;98287.69;;;13.14;70.17
73429;BME280;61643;49.564;17.412;2023-05-12T05:25:03;98288.22;;;13.21;69.98
73429;BME280;61643;49.564;17.412;2023-05-12T05:27:29;98292.00;;;13.30;71.59
73429;BME280;61643;49.564;17.412;2023-05-12T05:29:55;98290.66;;;13.38;70.32
73429;BME280;61643;49.564;17.412;2023-05-12T05:32:21;98298.50;;;13.29;73.88
73429;BME280;61643;49.564;17.412;2023-05-12T05:34:47;98292.53;;;13.38;71.90
73429;BME280;61643;49.564;17.412;2023-05-12T05:37:13;98294.41;;;13.32;71.88
73429;BME280;61643;49.564;17.412;2023-05-12T05:39:39;98301.69;;;13.47;74.39
73429;BME280;61643;49.564;17.412;2023-05-12T05:42:05;98307.91;;;13.62;70.19
73429;BME280;61643;49.564;17.412;2023-05-12T05:44:31;98311.97;;;13.60;68.77
73429;BME280;61643;49.564;17.412;2023-05-12T05:46:57;98311.16;;;13.54;73.64
73429;BME280;61643;49.564;17.412;2023-05-12T05:49:23;98308.72;;;13.43;71.23
73429;BME280;61643;49.564;17.412;2023-05-12T05:51:49;98313.56;;;13.61;72.76
73429;BME280;61643;49.564;17.412;2023-05-12T05:54:15;98310.31;;;13.74;71.88
73429;BME280;61643;49.564;17.412;2023-05-12T05:56:41;98306.25;;;13.76;69.90
73429;BME280;61643;49.564;17.412;2023-05-12T05:59:07;98305.44;;;13.71;70.23
73429;BME280;61643;49.564;17.412;2023-05-12T06:01:32;98312.75;;;13.60;70.25
73429;BME280;61643;49.564;17.412;2023-05-12T06:03:59;98311.16;;;13.49;71.44
73429;BME280;61643;49.564;17.412;2023-05-12T06:06:24;98306.56;;;13.40;71.77
73429;BME280;61643;49.564;17.412;2023-05-12T06:08:50;98309.81;;;13.47;72.55
73429;BME280;61643;49.564;17.412;2023-05-12T06:11:16;98307.66;;;13.49;72.57
73429;BME280;61643;49.564;17.412;2023-05-12T06:13:42;98310.06;;;13.60;72.21
73429;BME280;61643;49.564;17.412;2023-05-12T06:16:08;98304.91;;;13.74;71.55
73429;BME280;61643;49.564;17.412;2023-05-12T06:18:34;98312.72;;;13.75;71.94
73429;BME280;61643;49.564;17.412;2023-05-12T06:21:03;98311.06;;;14.00;71.88
73429;BME280;61643;49.564;17.412;2023-05-12T06:23:29;98309.63;;;14.12;71.75
73429;BME280;61643;49.564;17.412;2023-05-12T06:25:55;98312.34;;;14.12;71.35
73429;BME280;61643;49.564;17.412;2023-05-12T06:28:21;98316.13;;;14.11;71.12
73429;BME280;61643;49.564;17.412;2023-05-12T06:30:48;98318.84;;;14.11;70.66
73429;BME280;61643;49.564;17.412;2023-05-12T06:33:14;98324.50;;;14.20;71.30
73429;BME280;61643;49.564;17.412;2023-05-12T06:35:40;98322.59;;;14.20;71.45
73429;BME280;61643;49.564;17.412;2023-05-12T06:38:06;98314.94;;;14.32;71.59
73429;BME280;61643;49.564;17.412;2023-05-12T06:40:32;98321.69;;;14.50;72.15
73429;BME280;61643;49.564;17.412;2023-05-12T06:42:58;98318.09;;;14.60;72.63
73429;BME280;61643;49.564;17.412;2023-05-12T06:45:24;98334.88;;;14.62;70.32
73429;BME280;61643;49.564;17.412;2023-05-12T06:47:50;98329.50;;;14.57;73.16
73429;BME280;61643;49.564;17.412;2023-05-12T06:50:16;98333.47;;;14.69;70.84
73429;BME280;61643;49.564;17.412;2023-05-12T06:52:42;98326.41;;;14.73;71.17
73429;BME280;61643;49.564;17.412;2023-05-12T06:55:08;98326.34;;;14.84;72.38
73429;BME280;61643;49.564;17.412;2023-05-12T06:57:34;98328.50;;;14.87;72.49
73429;BME280;61643;49.564;17.412;2023-05-12T07:00:01;98334.94;;;14.91;72.73
73429;BME280;61643;49.564;17.412;2023-05-12T07:02:28;98330.34;;;14.91;71.61
73429;BME280;61643;49.564;17.412;2023-05-12T07:04:55;98331.56;;;14.70;73.96
73429;BME280;61643;49.564;17.412;2023-05-12T07:07:21;98332.41;;;14.65;74.01
73429;BME280;61643;49.564;17.412;2023-05-12T07:09:47;98330.00;;;14.59;74.59
73429;BME280;61643;49.564;17.412;2023-05-12T07:12:12;98330.31;;;14.52;74.67
73429;BME280;61643;49.564;17.412;2023-05-12T07:14:38;98323.28;;;14.51;73.21
73429;BME280;61643;49.564;17.412;2023-05-12T07:17:04;98326.78;;;14.57;74.26
73429;BME280;61643;49.564;17.412;2023-05-12T07:19:31;98322.13;;;14.62;73.18
73429;BME280;61643;49.564;17.412;2023-05-12T07:21:57;98322.13;;;14.67;73.91
73429;BME280;61643;49.564;17.412;2023-05-12T07:24:23;98325.78;;;14.87;73.31
73429;BME280;61643;49.564;17.412;2023-05-12T07:26:50;98325.66;;;15.02;72.45
73429;BME280;61643;49.564;17.412;2023-05-12T07:29:16;98330.25;;;15.06;70.96
73429;BME280;61643;49.564;17.412;2023-05-12T07:31:43;98326.38;;;15.12;69.88
73429;BME280;61643;49.564;17.412;2023-05-12T07:34:08;98328.00;;;15.18;69.67
73429;BME280;61643;49.564;17.412;2023-05-12T07:36:36;98321.94;;;15.26;71.70
73429;BME280;61643;49.564;17.412;2023-05-12T07:39:02;98334.84;;;15.40;71.79
73429;BME280;61643;49.564;17.412;2023-05-12T07:41:28;98330.72;;;15.47;69.72
73429;BME280;61643;49.564;17.412;2023-05-12T07:43:54;98331.25;;;15.49;68.70
73429;BME280;61643;49.564;17.412;2023-05-12T07:46:20;98328.56;;;15.49;69.96
73429;BME280;61643;49.564;17.412;2023-05-12T07:48:46;98326.66;;;15.50;66.21
73429;BME280;61643;49.564;17.412;2023-05-12T07:51:12;98328.56;;;15.49;66.44
73429;BME280;61643;49.564;17.412;2023-05-12T07:53:38;98330.72;;;15.47;65.83
73429;BME280;61643;49.564;17.412;2023-05-12T07:56:04;98327.47;;;15.50;63.97
73429;BME280;61643;49.564;17.412;2023-05-12T07:58:31;98331.00;;;15.51;63.53
73429;BME280;61643;49.564;17.412;2023-05-12T08:00:57;98333.97;;;15.49;65.79
73429;BME280;61643;49.564;17.412;2023-05-12T08:03:25;98332.31;;;15.53;64.61
73429;BME280;61643;49.564;17.412;2023-05-12T08:05:50;98338.53;;;15.59;63.11
73429;BME280;61643;49.564;17.412;2023-05-12T08:08:16;98337.84;;;15.72;60.97
73429;BME280;61643;49.564;17.412;2023-05-12T08:10:43;98338.78;;;15.86;62.33
73429;BME280;61643;49.564;17.412;2023-05-12T08:13:09;98331.28;;;16.02;61.65
73429;BME280;61643;49.564;17.412;2023-05-12T08:15:35;98339.88;;;16.09;62.72
73429;BME280;61643;49.564;17.412;2023-05-12T08:18:01;98338.44;;;16.16;59.12
73429;BME280;61643;49.564;17.412;2023-05-12T08:20:27;98340.56;;;16.19;60.33
73429;BME280;61643;49.564;17.412;2023-05-12T08:22:53;98343.06;;;16.16;61.50
73429;BME280;61643;49.564;17.412;2023-05-12T08:25:19;98337.91;;;16.14;58.90
73429;BME280;61643;49.564;17.412;2023-05-12T08:27:45;98342.72;;;16.22;59.06
73429;BME280;61643;49.564;17.412;2023-05-12T08:30:11;98338.47;;;16.35;61.64
73429;BME280;61643;49.564;17.412;2023-05-12T08:32:38;98343.25;;;16.43;59.39
73429;BME280;61643;49.564;17.412;2023-05-12T08:35:04;98334.06;;;16.39;59.35
73429;BME280;61643;49.564;17.412;2023-05-12T08:37:30;98338.28;;;16.50;60.51
73429;BME280;61643;49.564;17.412;2023-05-12T08:39:57;98335.56;;;16.50;58.65
73429;BME280;61643;49.564;17.412;2023-05-12T08:42:42;98334.44;;;16.56;60.04
73429;BME280;61643;49.564;17.412;2023-05-12T08:45:09;98344.19;;;16.57;59.17
73429;BME280;61643;49.564;17.412;2023-05-12T08:47:37;98345.00;;;16.58;60.03
73429;BME280;61643;49.564;17.412;2023-05-12T08:50:04;98332.66;;;16.65;57.97
73429;BME280;61643;49.564;17.412;2023-05-12T08:52:32;98341.59;;;16.71;60.79
73429;BME280;61643;49.564;17.412;2023-05-12T08:54:59;98333.75;;;16.64;61.21
73429;BME280;61643;49.564;17.412;2023-05-12T08:57:25;98335.03;;;16.72;64.09
73429;BME280;61643;49.564;17.412;2023-05-12T08:59:53;98342.81;;;16.79;62.87
73429;BME280;61643;49.564;17.412;2023-05-12T09:02:20;98335.03;;;16.72;62.76
73429;BME280;61643;49.564;17.412;2023-05-12T09:04:48;98339.53;;;16.82;61.99
73429;BME280;61643;49.564;17.412;2023-05-12T09:07:14;98334.00;;;16.87;61.78
73429;BME280;61643;49.564;17.412;2023-05-12T09:09:43;98337.97;;;16.94;59.96
73429;BME280;61643;49.564;17.412;2023-05-12T09:12:12;98344.22;;;16.95;58.87
73429;BME280;61643;49.564;17.412;2023-05-12T09:14:41;98336.06;;;16.95;59.29
73429;BME280;61643;49.564;17.412;2023-05-12T09:17:09;98346.56;;;17.01;59.21
73429;BME280;61643;49.564;17.412;2023-05-12T09:19:37;98327.03;;;16.99;57.37
73429;BME280;61643;49.564;17.412;2023-05-12T09:22:03;98334.59;;;17.02;56.68
73429;BME280;61643;49.564;17.412;2023-05-12T09:24:39;98320.56;;;16.95;57.81
73429;BME280;61643;49.564;17.412;2023-05-12T09:27:05;98332.97;;;17.01;58.69
73429;BME280;61643;49.564;17.412;2023-05-12T09:29:32;98343.09;;;17.14;57.99
73429;BME280;61643;49.564;17.412;2023-05-12T09:32:00;98330.59;;;17.13;58.77
73429;BME280;61643;49.564;17.412;2023-05-12T09:34:34;98329.75;;;16.99;57.38
73429;BME280;61643;49.564;17.412;2023-05-12T09:37:04;98333.41;;;17.08;57.65
73429;BME280;61643;49.564;17.412;2023-05-12T09:39:31;98327.25;;;17.03;54.34
73429;BME280;61643;49.564;17.412;2023-05-12T09:41:58;98337.44;;;17.11;56.55
73429;BME280;61643;49.564;17.412;2023-05-12T09:44:25;98327.22;;;17.21;57.83
73429;BME280;61643;49.564;17.412;2023-05-12T09:46:51;98319.28;;;17.25;58.33
73429;BME280;61643;49.564;17.412;2023-05-12T09:49:22;98322.03;;;17.39;58.55
73429;BME280;61643;49.564;17.412;2023-05-12T09:51:51;98321.34;;;17.47;58.41
73429;BME280;61643;49.564;17.412;2023-05-12T09:54:25;98329.38;;;17.57;59.72
73429;BME280;61643;49.564;17.412;2023-05-12T09:56:57;98325.22;;;17.59;59.53
73429;BME280;61643;49.564;17.412;2023-05-12T09:59:27;98320.38;;;17.56;58.62
73429;BME280;61643;49.564;17.412;2023-05-12T10:01:58;98318.09;;;17.63;57.63
73429;BME280;61643;49.564;17.412;2023-05-12T10:04:25;98321.50;;;17.69;57.87
73429;BME280;61643;49.564;17.412;2023-05-12T10:06:53;98327.97;;;17.73;57.68
73429;BME280;61643;49.564;17.412;2023-05-12T10:09:22;98320.63;;;17.74;57.69
73429;BME280;61643;49.564;17.412;2023-05-12T10:11:50;98321.84;;;17.81;57.57
73429;BME280;61643;49.564;17.412;2023-05-12T10:14:17;98326.59;;;17.89;59.41
73429;BME280;61643;49.564;17.412;2023-05-12T10:16:46;98319.13;;;17.95;57.04
73429;BME280;61643;49.564;17.412;2023-05-12T10:19:14;98313.69;;;17.95;56.93
73429;BME280;61643;49.564;17.412;2023-05-12T10:21:42;98315.09;;;17.92;54.61
73429;BME280;61643;49.564;17.412;2023-05-12T10:24:13;98317.22;;;17.95;55.42
73429;BME280;61643;49.564;17.412;2023-05-12T10:26:41;98317.94;;;18.01;54.35
73429;BME280;61643;49.564;17.412;2023-05-12T10:29:08;98319.53;;;18.02;53.34
73429;BME280;61643;49.564;17.412;2023-05-12T10:31:35;98312.63;;;17.63;56.45
73429;BME280;61643;49.564;17.412;2023-05-12T10:34:01;98309.44;;;17.75;56.55
73429;BME280;61643;49.564;17.412;2023-05-12T10:36:28;98307.63;;;17.84;56.86
73429;BME280;61643;49.564;17.412;2023-05-12T10:38:54;98302.91;;;17.90;59.06
73429;BME280;61643;49.564;17.412;2023-05-12T10:41:31;98308.03;;;17.91;58.75
73429;BME280;61643;49.564;17.412;2023-05-12T10:43:58;98299.78;;;17.83;57.33
73429;BME280;61643;49.564;17.412;2023-05-12T10:46:24;98294.69;;;17.76;56.35
73429;BME280;61643;49.564;17.412;2023-05-12T10:53:52;98301.59;;;17.55;59.35
73429;BME280;61643;49.564;17.412;2023-05-12T10:56:23;98307.84;;;17.55;57.62
73429;BME280;61643;49.564;17.412;2023-05-12T10:59:24;98301.59;;;17.55;58.39
73429;BME280;61643;49.564;17.412;2023-05-12T11:01:56;98304.56;;;17.58;57.04
73429;BME280;61643;49.564;17.412;2023-05-12T11:04:47;98298.53;;;17.61;56.16
73429;BME280;61643;49.564;17.412;2023-05-12T11:07:14;98302.03;;;17.62;56.13
73429;BME280;61643;49.564;17.412;2023-05-12T11:09:43;98293.66;;;17.58;58.40
73429;BME280;61643;49.564;17.412;2023-05-12T11:12:10;98293.88;;;17.62;57.89
73429;BME280;61643;49.564;17.412;2023-05-12T11:14:38;98290.66;;;17.60;57.16
73429;BME280;61643;49.564;17.412;2023-05-12T11:17:04;98295.81;;;17.61;56.82
73429;BME280;61643;49.564;17.412;2023-05-12T11:19:31;98290.88;;;17.63;58.12
73429;BME280;61643;49.564;17.412;2023-05-12T11:21:57;98287.03;;;17.64;61.01
73429;BME280;61643;49.564;17.412;2023-05-12T11:24:23;98281.88;;;17.63;59.90
73429;BME280;61643;49.564;17.412;2023-05-12T11:26:50;98290.22;;;17.53;59.74
73429;BME280;61643;49.564;17.412;2023-05-12T11:29:17;98289.88;;;17.41;59.57
73429;BME280;61643;49.564;17.412;2023-05-12T11:31:51;98281.47;;;17.23;61.55
73429;BME280;61643;49.564;17.412;2023-05-12T11:34:24;98296.56;;;17.16;61.96
73429;BME280;61643;49.564;17.412;2023-05-12T11:36:52;98286.72;;;17.01;62.69
73429;BME280;61643;49.564;17.412;2023-05-12T11:39:20;98286.03;;;16.96;63.88
73429;BME280;61643;49.564;17.412;2023-05-12T11:41:48;98290.00;;;16.85;64.83
73429;BME280;61643;49.564;17.412;2023-05-12T11:44:22;98287.56;;;16.83;63.80
73429;BME280;61643;49.564;17.412;2023-05-12T11:49:25;98297.13;;;16.99;63.09
73429;BME280;61643;49.564;17.412;2023-05-12T11:51:53;98295.31;;;17.08;62.09
73429;BME280;61643;49.564;17.412;2023-05-12T11:54:20;98293.03;;;17.15;61.81
73429;BME280;61643;49.564;17.412;2023-05-12T11:56:51;98296.78;;;17.19;62.67
73429;BME280;61643;49.564;17.412;2023-05-12T12:01:54;98299.31;;;17.30;65.24
73429;BME280;61643;49.564;17.412;2023-05-12T12:04:49;98303.78;;;17.39;66.63
73429;BME280;61643;49.564;17.412;2023-05-12T12:07:15;98303.09;;;17.47;62.51
73429;BME280;61643;49.564;17.412;2023-05-12T12:09:41;98303.53;;;17.54;61.82
73429;BME280;61643;49.564;17.412;2023-05-12T12:12:09;98304.91;;;17.52;57.50
73429;BME280;61643;49.564;17.412;2023-05-12T12:14:36;98305.38;;;17.59;59.10
73429;BME280;61643;49.564;17.412;2023-05-12T12:17:03;98300.50;;;17.56;56.37
73429;BME280;61643;49.564;17.412;2023-05-12T12:19:29;98304.50;;;17.45;57.42
73429;BME280;61643;49.564;17.412;2023-05-12T12:21:56;98307.91;;;17.37;57.83
73429;BME280;61643;49.564;17.412;2023-05-12T12:24:23;98311.59;;;17.27;57.79
73429;BME280;61643;49.564;17.412;2023-05-12T12:26:49;98304.44;;;17.17;58.91
73429;BME280;61643;49.564;17.412;2023-05-12T12:29:16;98303.47;;;17.08;58.61
73429;BME280;61643;49.564;17.412;2023-05-12T12:31:42;98308.00;;;16.99;58.51
73429;BME280;61643;49.564;17.412;2023-05-12T12:34:08;98308.72;;;16.86;58.34
73429;BME280;61643;49.564;17.412;2023-05-12T12:36:34;98302.13;;;16.73;59.47
73429;BME280;61643;49.564;17.412;2023-05-12T12:39:00;98306.69;;;16.59;56.86
73429;BME280;61643;49.564;17.412;2023-05-12T12:41:27;98304.25;;;16.58;57.44
73429;BME280;61643;49.564;17.412;2023-05-12T12:43:53;98295.63;;;16.51;57.75
73429;BME280;61643;49.564;17.412;2023-05-12T12:46:19;98303.75;;;16.51;59.19
73429;BME280;61643;49.564;17.412;2023-05-12T12:48:45;98306.91;;;16.39;60.51
73429;BME280;61643;49.564;17.412;2023-05-12T12:51:11;98306.75;;;16.31;61.47
73429;BME280;61643;49.564;17.412;2023-05-12T12:53:37;98303.69;;;16.37;61.17
73429;BME280;61643;49.564;17.412;2023-05-12T12:56:04;98307.66;;;16.45;63.49
73429;BME280;61643;49.564;17.412;2023-05-12T12:58:30;98305.66;;;16.50;63.97
73429;BME280;61643;49.564;17.412;2023-05-12T13:00:56;98308.06;;;16.57;64.83